Star Flyer — 9HA2512 — position and weather

sailwx.info

Track history (hours):
 
Tides and Currents Weather Stations Pressure Air Temp Water Temp Dewpoint Dewpoint Depression Visibility Wind Speed Wind Dir Waves Ship Positions

Star Flyer

Last reported at 2020-Mar-16 21:25 UTC. Time now 2020-Apr-02 04:32 UTC.
Position N 18°01' W 063°03'.
Warning: this ship's position is 16 days out of date.

Length 112 m; draft 5.8 m.

Type: Ship. MMSI: 248785000.

Date/timePositionNaut miles runAvg speedWind from/ knotsBaromVisibWave heightAir tempDewpointWater temp
2020-Mar-16 21:25N 18°01' W 063°03'0 0.0
2020-Mar-16 19:29N 18°01' W 063°03'0 0.0
2020-Mar-16 14:47N 18°01' W 063°03'0 0.0
2020-Mar-16 14:23N 18°01' W 063°03'0 0.0
2020-Mar-16 11:53N 18°01' W 063°03'0 0.0
2020-Mar-16 06:59N 18°01' W 063°03'0 0.0
2020-Mar-16 06:29N 18°01' W 063°03'0 0.0
2020-Mar-16 05:55N 18°01' W 063°03'0 0.0
2020-Mar-16 05:17N 18°01' W 063°03'0 0.0
2020-Mar-16 03:13N 18°01' W 063°03'0 0.0
2020-Mar-15 22:30N 18°01' W 063°03'0 0.0
2020-Mar-15 21:49N 18°01' W 063°03'0 0.0
2020-Mar-15 21:24N 18°01' W 063°03'0 0.0
2020-Mar-15 21:00N 18°01' W 063°03'0 0.0
2020-Mar-15 20:00N 18°01' W 063°03'0 0.0
2020-Mar-15 14:00N 18°01' W 063°03'0 0.0
2020-Mar-15 10:48N 18°01' W 063°03'0 0.0
2020-Mar-15 09:57N 18°01' W 063°03'0 0.0
2020-Mar-15 08:54N 18°01' W 063°03'0 0.0
2020-Mar-15 03:30N 18°01' W 063°03'0 0.0
2020-Mar-14 19:30N 18°01' W 063°03'0 0.0
2020-Mar-14 17:03N 18°01' W 063°03'2 0.2
2020-Mar-14 08:55N 18°00' W 063°04'2 1.6
2020-Mar-14 07:30N 17°59' W 063°06'3 2.3
2020-Mar-14 06:22N 17°58' W 063°04'9 2.6
2020-Mar-14 03:00N 17°55' W 062°55'  
2020-Mar-08 09:01N 17°24' W 062°57'14 7.4
2020-Mar-08 07:04N 17°36' W 063°04'2 8.7
2020-Mar-08 06:54N 17°38' W 063°04'8 8.4
2020-Mar-08 06:00N 17°45' W 063°05'4 7.8
2020-Mar-08 05:27N 17°49' W 063°06'3 3.6
2020-Mar-08 04:40N 17°52' W 063°06'6 3.5
2020-Mar-08 02:58N 17°58' W 063°05'3 4.2
2020-Mar-08 02:10N 18°01' W 063°03'3 0.2
2020-Mar-07 08:12N 17°58' W 063°03'2 0.8
2020-Mar-07 04:59N 17°57' W 063°01'3 2.6
2020-Mar-07 03:56N 17°56' W 062°59'2 3.2
2020-Mar-07 03:25N 17°56' W 062°57'  
Track history (hours):
 
Tides and Currents Weather Stations Pressure Air Temp Water Temp Dewpoint Dewpoint Depression Visibility Wind Speed Wind Dir Waves Ship Positions

Star Flyer

Last reported at 2020-Mar-16 21:25 UTC. Time now 2020-Apr-02 04:32 UTC.
Position N 18°01' W 063°03'.
Warning: this ship's position is 16 days out of date.

Length 112 m; draft 5.8 m.

Type: Ship. MMSI: 248785000.

Date/timePositionNaut miles runAvg speedWind from/ knotsBaromVisibWave heightAir tempDewpointWater temp
2020-Mar-16 21:25N 18°01' W 063°03'0 0.0
2020-Mar-16 19:29N 18°01' W 063°03'0 0.0
2020-Mar-16 14:47N 18°01' W 063°03'0 0.0
2020-Mar-16 14:23N 18°01' W 063°03'0 0.0
2020-Mar-16 11:53N 18°01' W 063°03'0 0.0
2020-Mar-16 06:59N 18°01' W 063°03'0 0.0
2020-Mar-16 06:29N 18°01' W 063°03'0 0.0
2020-Mar-16 05:55N 18°01' W 063°03'0 0.0
2020-Mar-16 05:17N 18°01' W 063°03'0 0.0
2020-Mar-16 03:13N 18°01' W 063°03'0 0.0
2020-Mar-15 22:30N 18°01' W 063°03'0 0.0
2020-Mar-15 21:49N 18°01' W 063°03'0 0.0
2020-Mar-15 21:24N 18°01' W 063°03'0 0.0
2020-Mar-15 21:00N 18°01' W 063°03'0 0.0
2020-Mar-15 20:00N 18°01' W 063°03'0 0.0
2020-Mar-15 14:00N 18°01' W 063°03'0 0.0
2020-Mar-15 10:48N 18°01' W 063°03'0 0.0
2020-Mar-15 09:57N 18°01' W 063°03'0 0.0
2020-Mar-15 08:54N 18°01' W 063°03'0 0.0
2020-Mar-15 03:30N 18°01' W 063°03'0 0.0
2020-Mar-14 19:30N 18°01' W 063°03'0 0.0
2020-Mar-14 17:03N 18°01' W 063°03'2 0.2
2020-Mar-14 08:55N 18°00' W 063°04'2 1.6
2020-Mar-14 07:30N 17°59' W 063°06'3 2.3
2020-Mar-14 06:22N 17°58' W 063°04'9 2.6
2020-Mar-14 03:00N 17°55' W 062°55'  
2020-Mar-08 09:01N 17°24' W 062°57'14 7.4
2020-Mar-08 07:04N 17°36' W 063°04'2 8.7
2020-Mar-08 06:54N 17°38' W 063°04'8 8.4
2020-Mar-08 06:00N 17°45' W 063°05'4 7.8
2020-Mar-08 05:27N 17°49' W 063°06'3 3.6
2020-Mar-08 04:40N 17°52' W 063°06'6 3.5
2020-Mar-08 02:58N 17°58' W 063°05'3 4.2
2020-Mar-08 02:10N 18°01' W 063°03'3 0.2
2020-Mar-07 08:12N 17°58' W 063°03'2 0.8
2020-Mar-07 04:59N 17°57' W 063°01'3 2.6
2020-Mar-07 03:56N 17°56' W 062°59'2 3.2
2020-Mar-07 03:25N 17°56' W 062°57'  

Dump ship's entire track history